sensor_id;sensor_type;location;lat;lon;timestamp;temperature;humidity
76345;DHT22;65160;50.504;3.666;2023-01-08T00:00:45;7.86;94.29
76345;DHT22;65160;50.504;3.666;2023-01-08T00:03:11;7.86;94.23
76345;DHT22;65160;50.504;3.666;2023-01-08T00:05:37;7.86;94.69
76345;DHT22;65160;50.504;3.666;2023-01-08T00:08:03;7.90;94.66
76345;DHT22;65160;50.504;3.666;2023-01-08T00:10:28;7.91;94.71
76345;DHT22;65160;50.504;3.666;2023-01-08T00:12:54;7.96;94.91
76345;DHT22;65160;50.504;3.666;2023-01-08T00:15:20;8.00;94.70
76345;DHT22;65160;50.504;3.666;2023-01-08T00:17:45;8.09;94.97
76345;DHT22;65160;50.504;3.666;2023-01-08T00:20:11;8.14;94.77
76345;DHT22;65160;50.504;3.666;2023-01-08T00:22:36;8.24;95.11
76345;DHT22;65160;50.504;3.666;2023-01-08T00:25:03;8.31;94.96
76345;DHT22;65160;50.504;3.666;2023-01-08T00:27:28;8.34;95.05
76345;DHT22;65160;50.504;3.666;2023-01-08T00:29:54;8.41;95.05
76345;DHT22;65160;50.504;3.666;2023-01-08T00:32:19;8.42;94.86
76345;DHT22;65160;50.504;3.666;2023-01-08T00:34:45;8.44;94.83
76345;DHT22;65160;50.504;3.666;2023-01-08T00:37:10;8.48;94.69
76345;DHT22;65160;50.504;3.666;2023-01-08T00:39:36;8.58;94.78
76345;DHT22;65160;50.504;3.666;2023-01-08T00:42:01;8.65;94.47
76345;DHT22;65160;50.504;3.666;2023-01-08T00:44:27;8.76;94.53
76345;DHT22;65160;50.504;3.666;2023-01-08T00:46:52;8.76;94.52
76345;DHT22;65160;50.504;3.666;2023-01-08T00:49:18;8.76;94.88
76345;DHT22;65160;50.504;3.666;2023-01-08T00:51:43;8.82;94.82
76345;DHT22;65160;50.504;3.666;2023-01-08T00:54:10;8.90;94.78
76345;DHT22;65160;50.504;3.666;2023-01-08T00:56:35;8.93;94.96
76345;DHT22;65160;50.504;3.666;2023-01-08T00:59:01;8.90;94.77
76345;DHT22;65160;50.504;3.666;2023-01-08T01:01:26;8.87;93.93
76345;DHT22;65160;50.504;3.666;2023-01-08T01:03:52;8.84;94.02
76345;DHT22;65160;50.504;3.666;2023-01-08T01:06:18;8.87;92.81
76345;DHT22;65160;50.504;3.666;2023-01-08T01:08:43;8.84;92.80
76345;DHT22;65160;50.504;3.666;2023-01-08T01:11:23;8.84;92.42
76345;DHT22;65160;50.504;3.666;2023-01-08T01:13:49;8.84;92.43
76345;DHT22;65160;50.504;3.666;2023-01-08T01:16:16;8.90;92.52
76345;DHT22;65160;50.504;3.666;2023-01-08T01:18:41;8.83;92.74
76345;DHT22;65160;50.504;3.666;2023-01-08T01:21:27;8.84;93.22
76345;DHT22;65160;50.504;3.666;2023-01-08T01:23:54;8.86;92.91
76345;DHT22;65160;50.504;3.666;2023-01-08T01:26:21;8.87;92.77
76345;DHT22;65160;50.504;3.666;2023-01-08T01:28:49;8.83;93.81
76345;DHT22;65160;50.504;3.666;2023-01-08T01:31:15;8.68;94.98
76345;DHT22;65160;50.504;3.666;2023-01-08T01:33:41;8.20;89.54
76345;DHT22;65160;50.504;3.666;2023-01-08T01:36:08;7.79;90.01
76345;DHT22;65160;50.504;3.666;2023-01-08T01:38:34;7.72;91.09
76345;DHT22;65160;50.504;3.666;2023-01-08T01:41:00;7.75;91.89
76345;DHT22;65160;50.504;3.666;2023-01-08T01:43:40;7.80;92.29
76345;DHT22;65160;50.504;3.666;2023-01-08T01:46:34;7.86;92.82
76345;DHT22;65160;50.504;3.666;2023-01-08T01:49:05;7.94;93.07
76345;DHT22;65160;50.504;3.666;2023-01-08T01:51:32;8.06;93.71
76345;DHT22;65160;50.504;3.666;2023-01-08T01:53:59;8.13;94.19
76345;DHT22;65160;50.504;3.666;2023-01-08T01:56:26;8.17;94.77
76345;DHT22;65160;50.504;3.666;2023-01-08T01:58:52;8.18;95.02
76345;DHT22;65160;50.504;3.666;2023-01-08T02:01:18;8.28;94.92
76345;DHT22;65160;50.504;3.666;2023-01-08T02:03:44;8.33;94.75
76345;DHT22;65160;50.504;3.666;2023-01-08T02:06:22;8.41;94.61
76345;DHT22;65160;50.504;3.666;2023-01-08T02:11:57;8.40;92.55
76345;DHT22;65160;50.504;3.666;2023-01-08T02:17:50;8.31;91.28
76345;DHT22;65160;50.504;3.666;2023-01-08T02:20:29;8.26;90.53
76345;DHT22;65160;50.504;3.666;2023-01-08T02:23:10;8.18;90.83
76345;DHT22;65160;50.504;3.666;2023-01-08T02:26:08;8.07;91.85
76345;DHT22;65160;50.504;3.666;2023-01-08T02:28:48;8.04;92.15
76345;DHT22;65160;50.504;3.666;2023-01-08T02:31:16;7.96;91.57
76345;DHT22;65160;50.504;3.666;2023-01-08T02:33:43;7.90;91.47
76345;DHT22;65160;50.504;3.666;2023-01-08T02:38:47;7.83;91.63
76345;DHT22;65160;50.504;3.666;2023-01-08T02:41:18;7.80;91.70
76345;DHT22;65160;50.504;3.666;2023-01-08T02:43:49;7.75;91.80
76345;DHT22;65160;50.504;3.666;2023-01-08T02:46:18;7.69;92.00
76345;DHT22;65160;50.504;3.666;2023-01-08T02:49:07;7.65;91.52
76345;DHT22;65160;50.504;3.666;2023-01-08T02:51:40;7.68;90.75
76345;DHT22;65160;50.504;3.666;2023-01-08T02:54:10;7.71;89.79
76345;DHT22;65160;50.504;3.666;2023-01-08T02:56:48;7.69;90.73
76345;DHT22;65160;50.504;3.666;2023-01-08T02:59:14;7.69;90.65
76345;DHT22;65160;50.504;3.666;2023-01-08T03:01:41;7.65;90.33
76345;DHT22;65160;50.504;3.666;2023-01-08T03:04:14;7.65;89.58
76345;DHT22;65160;50.504;3.666;2023-01-08T03:06:41;7.66;90.05
76345;DHT22;65160;50.504;3.666;2023-01-08T03:09:07;7.65;89.49
76345;DHT22;65160;50.504;3.666;2023-01-08T03:11:43;7.68;89.27
76345;DHT22;65160;50.504;3.666;2023-01-08T03:17:13;7.66;88.98
76345;DHT22;65160;50.504;3.666;2023-01-08T03:19:43;7.65;89.04
76345;DHT22;65160;50.504;3.666;2023-01-08T03:22:14;7.68;88.59
76345;DHT22;65160;50.504;3.666;2023-01-08T03:24:42;7.71;88.88
76345;DHT22;65160;50.504;3.666;2023-01-08T03:27:13;7.69;89.02
76345;DHT22;65160;50.504;3.666;2023-01-08T03:29:40;7.69;88.56
76345;DHT22;65160;50.504;3.666;2023-01-08T03:32:10;7.63;88.70
76345;DHT22;65160;50.504;3.666;2023-01-08T03:34:39;7.63;89.70
76345;DHT22;65160;50.504;3.666;2023-01-08T03:37:07;7.59;89.22
76345;DHT22;65160;50.504;3.666;2023-01-08T03:39:43;7.58;90.14
76345;DHT22;65160;50.504;3.666;2023-01-08T03:42:12;7.51;90.57
76345;DHT22;65160;50.504;3.666;2023-01-08T03:44:38;7.51;90.00
76345;DHT22;65160;50.504;3.666;2023-01-08T03:47:04;7.42;90.45
76345;DHT22;65160;50.504;3.666;2023-01-08T03:49:33;7.38;90.86
76345;DHT22;65160;50.504;3.666;2023-01-08T03:51:59;7.31;90.99
76345;DHT22;65160;50.504;3.666;2023-01-08T03:54:29;7.27;91.24
76345;DHT22;65160;50.504;3.666;2023-01-08T03:56:55;7.27;91.02
76345;DHT22;65160;50.504;3.666;2023-01-08T03:59:21;7.16;91.31
76345;DHT22;65160;50.504;3.666;2023-01-08T04:01:47;7.07;91.96
76345;DHT22;65160;50.504;3.666;2023-01-08T04:04:12;7.08;91.73
76345;DHT22;65160;50.504;3.666;2023-01-08T04:06:38;7.04;91.87
76345;DHT22;65160;50.504;3.666;2023-01-08T04:09:04;7.00;92.07
76345;DHT22;65160;50.504;3.666;2023-01-08T04:11:30;7.01;92.50
76345;DHT22;65160;50.504;3.666;2023-01-08T04:13:56;6.96;92.35
76345;DHT22;65160;50.504;3.666;2023-01-08T04:16:22;6.90;92.04
76345;DHT22;65160;50.504;3.666;2023-01-08T04:18:47;6.97;91.75
76345;DHT22;65160;50.504;3.666;2023-01-08T04:21:13;7.00;92.34
76345;DHT22;65160;50.504;3.666;2023-01-08T04:23:38;6.92;91.79
76345;DHT22;65160;50.504;3.666;2023-01-08T04:26:05;6.90;91.89
76345;DHT22;65160;50.504;3.666;2023-01-08T04:28:30;6.90;91.59
76345;DHT22;65160;50.504;3.666;2023-01-08T04:30:56;6.93;91.02
76345;DHT22;65160;50.504;3.666;2023-01-08T04:33:21;6.87;90.82
76345;DHT22;65160;50.504;3.666;2023-01-08T04:35:47;6.92;90.70
76345;DHT22;65160;50.504;3.666;2023-01-08T04:38:12;6.95;90.54
76345;DHT22;65160;50.504;3.666;2023-01-08T04:40:38;6.86;90.69
76345;DHT22;65160;50.504;3.666;2023-01-08T04:43:03;6.85;90.74
76345;DHT22;65160;50.504;3.666;2023-01-08T04:45:29;6.79;90.38
76345;DHT22;65160;50.504;3.666;2023-01-08T04:47:55;6.75;90.26
76345;DHT22;65160;50.504;3.666;2023-01-08T04:50:21;6.78;90.00
76345;DHT22;65160;50.504;3.666;2023-01-08T04:52:47;6.75;90.17
76345;DHT22;65160;50.504;3.666;2023-01-08T04:55:12;6.76;89.43
76345;DHT22;65160;50.504;3.666;2023-01-08T04:57:38;6.80;89.44
76345;DHT22;65160;50.504;3.666;2023-01-08T05:00:04;6.79;89.14
76345;DHT22;65160;50.504;3.666;2023-01-08T05:02:29;6.68;89.69
76345;DHT22;65160;50.504;3.666;2023-01-08T05:04:55;6.71;89.26
76345;DHT22;65160;50.504;3.666;2023-01-08T05:07:20;6.61;89.59
76345;DHT22;65160;50.504;3.666;2023-01-08T05:09:46;6.58;89.61
76345;DHT22;65160;50.504;3.666;2023-01-08T05:12:11;6.52;90.08
76345;DHT22;65160;50.504;3.666;2023-01-08T05:14:37;6.53;89.96
76345;DHT22;65160;50.504;3.666;2023-01-08T05:17:02;6.55;89.50
76345;DHT22;65160;50.504;3.666;2023-01-08T05:19:28;6.52;90.13
76345;DHT22;65160;50.504;3.666;2023-01-08T05:21:53;6.49;89.96
76345;DHT22;65160;50.504;3.666;2023-01-08T05:24:19;6.53;90.06
76345;DHT22;65160;50.504;3.666;2023-01-08T05:26:44;6.42;89.96
76345;DHT22;65160;50.504;3.666;2023-01-08T05:29:10;6.44;90.19
76345;DHT22;65160;50.504;3.666;2023-01-08T05:31:35;6.46;90.61
76345;DHT22;65160;50.504;3.666;2023-01-08T05:34:01;6.45;90.30
76345;DHT22;65160;50.504;3.666;2023-01-08T05:36:26;6.45;90.55
76345;DHT22;65160;50.504;3.666;2023-01-08T05:38:52;6.44;90.48
76345;DHT22;65160;50.504;3.666;2023-01-08T05:41:17;6.44;90.65
76345;DHT22;65160;50.504;3.666;2023-01-08T05:43:43;6.44;91.03
76345;DHT22;65160;50.504;3.666;2023-01-08T05:46:09;6.44;90.78
76345;DHT22;65160;50.504;3.666;2023-01-08T05:48:35;6.38;91.09
76345;DHT22;65160;50.504;3.666;2023-01-08T05:51:02;6.40;91.02
76345;DHT22;65160;50.504;3.666;2023-01-08T05:53:28;6.45;91.35
76345;DHT22;65160;50.504;3.666;2023-01-08T05:56:00;6.52;91.58
76345;DHT22;65160;50.504;3.666;2023-01-08T05:58:26;6.52;91.28
76345;DHT22;65160;50.504;3.666;2023-01-08T06:00:52;6.59;91.24
76345;DHT22;65160;50.504;3.666;2023-01-08T06:03:21;6.61;91.05
76345;DHT22;65160;50.504;3.666;2023-01-08T06:05:47;6.69;91.41
76345;DHT22;65160;50.504;3.666;2023-01-08T06:08:14;6.72;91.54
76345;DHT22;65160;50.504;3.666;2023-01-08T06:10:39;6.71;91.32
76345;DHT22;65160;50.504;3.666;2023-01-08T06:13:08;6.71;91.60
76345;DHT22;65160;50.504;3.666;2023-01-08T06:15:36;6.73;91.67
76345;DHT22;65160;50.504;3.666;2023-01-08T06:18:03;6.80;91.60
76345;DHT22;65160;50.504;3.666;2023-01-08T06:20:29;6.80;91.61
76345;DHT22;65160;50.504;3.666;2023-01-08T06:22:54;6.89;91.99
76345;DHT22;65160;50.504;3.666;2023-01-08T06:25:20;6.92;91.69
76345;DHT22;65160;50.504;3.666;2023-01-08T06:27:52;7.00;92.21
76345;DHT22;65160;50.504;3.666;2023-01-08T06:30:18;6.99;91.82
76345;DHT22;65160;50.504;3.666;2023-01-08T06:32:44;7.01;91.94
76345;DHT22;65160;50.504;3.666;2023-01-08T06:35:09;7.04;91.84
76345;DHT22;65160;50.504;3.666;2023-01-08T06:37:35;7.13;92.14
76345;DHT22;65160;50.504;3.666;2023-01-08T06:40:00;7.11;92.19
76345;DHT22;65160;50.504;3.666;2023-01-08T06:42:26;7.14;92.34
76345;DHT22;65160;50.504;3.666;2023-01-08T06:44:51;7.18;92.36
76345;DHT22;65160;50.504;3.666;2023-01-08T06:47:17;7.24;92.58
76345;DHT22;65160;50.504;3.666;2023-01-08T06:49:42;7.25;92.54
76345;DHT22;65160;50.504;3.666;2023-01-08T06:52:08;7.34;92.43
76345;DHT22;65160;50.504;3.666;2023-01-08T06:54:33;7.36;92.72
76345;DHT22;65160;50.504;3.666;2023-01-08T06:56:59;7.42;92.48
76345;DHT22;65160;50.504;3.666;2023-01-08T06:59:24;7.54;92.23
76345;DHT22;65160;50.504;3.666;2023-01-08T07:01:50;7.58;92.07
76345;DHT22;65160;50.504;3.666;2023-01-08T07:04:16;7.58;91.86
76345;DHT22;65160;50.504;3.666;2023-01-08T07:06:42;7.52;92.06
76345;DHT22;65160;50.504;3.666;2023-01-08T07:09:11;7.55;92.05
76345;DHT22;65160;50.504;3.666;2023-01-08T07:11:36;7.54;92.13
76345;DHT22;65160;50.504;3.666;2023-01-08T07:14:02;7.61;91.66
76345;DHT22;65160;50.504;3.666;2023-01-08T07:16:27;7.63;91.52
76345;DHT22;65160;50.504;3.666;2023-01-08T07:18:53;7.66;91.43
76345;DHT22;65160;50.504;3.666;2023-01-08T07:21:18;7.63;91.61
76345;DHT22;65160;50.504;3.666;2023-01-08T07:23:47;7.55;91.84
76345;DHT22;65160;50.504;3.666;2023-01-08T07:26:13;7.50;91.75
76345;DHT22;65160;50.504;3.666;2023-01-08T07:28:38;7.51;91.58
76345;DHT22;65160;50.504;3.666;2023-01-08T07:31:05;7.50;91.41
76345;DHT22;65160;50.504;3.666;2023-01-08T07:33:30;7.54;91.26
76345;DHT22;65160;50.504;3.666;2023-01-08T07:35:56;7.52;91.08
76345;DHT22;65160;50.504;3.666;2023-01-08T07:38:22;7.47;91.18
76345;DHT22;65160;50.504;3.666;2023-01-08T07:40:48;7.41;91.17
76345;DHT22;65160;50.504;3.666;2023-01-08T07:43:14;7.35;91.08
76345;DHT22;65160;50.504;3.666;2023-01-08T07:45:40;7.32;91.09
76345;DHT22;65160;50.504;3.666;2023-01-08T07:48:06;7.30;91.09
76345;DHT22;65160;50.504;3.666;2023-01-08T07:50:32;7.25;91.15
76345;DHT22;65160;50.504;3.666;2023-01-08T07:53:01;7.23;91.05
76345;DHT22;65160;50.504;3.666;2023-01-08T07:55:28;7.20;91.18
76345;DHT22;65160;50.504;3.666;2023-01-08T07:57:53;7.23;91.22
76345;DHT22;65160;50.504;3.666;2023-01-08T08:00:19;7.23;91.14
76345;DHT22;65160;50.504;3.666;2023-01-08T08:02:44;7.21;90.98
76345;DHT22;65160;50.504;3.666;2023-01-08T08:05:10;7.23;90.67
76345;DHT22;65160;50.504;3.666;2023-01-08T08:07:35;7.28;90.49
76345;DHT22;65160;50.504;3.666;2023-01-08T08:10:02;7.28;90.28
76345;DHT22;65160;50.504;3.666;2023-01-08T08:12:28;7.30;90.22
76345;DHT22;65160;50.504;3.666;2023-01-08T08:14:53;7.28;90.31
76345;DHT22;65160;50.504;3.666;2023-01-08T08:17:19;7.28;90.04
76345;DHT22;65160;50.504;3.666;2023-01-08T08:19:44;7.28;89.93
76345;DHT22;65160;50.504;3.666;2023-01-08T08:22:11;7.24;89.75
76345;DHT22;65160;50.504;3.666;2023-01-08T08:24:37;7.24;90.21
76345;DHT22;65160;50.504;3.666;2023-01-08T08:27:02;7.16;90.24
76345;DHT22;65160;50.504;3.666;2023-01-08T08:29:28;7.08;90.50
76345;DHT22;65160;50.504;3.666;2023-01-08T08:31:53;7.06;90.53
76345;DHT22;65160;50.504;3.666;2023-01-08T08:34:19;7.06;90.60
76345;DHT22;65160;50.504;3.666;2023-01-08T08:36:47;7.03;90.96
76345;DHT22;65160;50.504;3.666;2023-01-08T08:39:12;7.07;90.79
76345;DHT22;65160;50.504;3.666;2023-01-08T08:41:38;7.11;90.25
76345;DHT22;65160;50.504;3.666;2023-01-08T08:44:04;7.13;90.24
76345;DHT22;65160;50.504;3.666;2023-01-08T08:46:29;7.18;90.05
76345;DHT22;65160;50.504;3.666;2023-01-08T08:48:55;7.24;89.85
76345;DHT22;65160;50.504;3.666;2023-01-08T08:51:20;7.32;89.53
76345;DHT22;65160;50.504;3.666;2023-01-08T08:53:46;7.40;89.34
76345;DHT22;65160;50.504;3.666;2023-01-08T08:56:11;7.52;88.57
76345;DHT22;65160;50.504;3.666;2023-01-08T08:58:37;7.63;88.16
76345;DHT22;65160;50.504;3.666;2023-01-08T09:01:03;7.72;87.96
76345;DHT22;65160;50.504;3.666;2023-01-08T09:03:28;7.82;87.50
76345;DHT22;65160;50.504;3.666;2023-01-08T09:05:54;7.90;87.39
76345;DHT22;65160;50.504;3.666;2023-01-08T09:08:20;8.03;86.52
76345;DHT22;65160;50.504;3.666;2023-01-08T09:10:45;8.10;86.91
76345;DHT22;65160;50.504;3.666;2023-01-08T09:13:11;8.13;86.04
76345;DHT22;65160;50.504;3.666;2023-01-08T09:15:37;8.16;86.00
76345;DHT22;65160;50.504;3.666;2023-01-08T09:18:03;8.21;85.68
76345;DHT22;65160;50.504;3.666;2023-01-08T09:20:28;8.26;85.65
76345;DHT22;65160;50.504;3.666;2023-01-08T09:22:57;8.30;85.30
76345;DHT22;65160;50.504;3.666;2023-01-08T09:25:22;8.34;85.92
76345;DHT22;65160;50.504;3.666;2023-01-08T09:27:48;8.41;85.20
76345;DHT22;65160;50.504;3.666;2023-01-08T09:30:13;8.48;84.81
76345;DHT22;65160;50.504;3.666;2023-01-08T09:32:39;8.61;84.65
76345;DHT22;65160;50.504;3.666;2023-01-08T09:35:05;8.62;84.20
76345;DHT22;65160;50.504;3.666;2023-01-08T09:37:30;8.77;84.52
76345;DHT22;65160;50.504;3.666;2023-01-08T09:39:56;8.96;83.77
76345;DHT22;65160;50.504;3.666;2023-01-08T09:42:24;9.13;83.74
76345;DHT22;65160;50.504;3.666;2023-01-08T09:44:54;9.06;83.67
76345;DHT22;65160;50.504;3.666;2023-01-08T09:47:36;9.21;83.36
76345;DHT22;65160;50.504;3.666;2023-01-08T09:50:03;9.23;83.27
76345;DHT22;65160;50.504;3.666;2023-01-08T09:52:31;9.14;83.85
76345;DHT22;65160;50.504;3.666;2023-01-08T09:54:57;9.30;83.22
76345;DHT22;65160;50.504;3.666;2023-01-08T09:57:23;9.34;83.62
76345;DHT22;65160;50.504;3.666;2023-01-08T09:59:48;9.11;84.48
76345;DHT22;65160;50.504;3.666;2023-01-08T10:02:23;9.19;84.49
76345;DHT22;65160;50.504;3.666;2023-01-08T10:04:56;9.10;84.83
76345;DHT22;65160;50.504;3.666;2023-01-08T10:07:23;8.92;84.87
76345;DHT22;65160;50.504;3.666;2023-01-08T10:09:51;9.27;84.51
76345;DHT22;65160;50.504;3.666;2023-01-08T10:12:32;9.19;84.32
76345;DHT22;65160;50.504;3.666;2023-01-08T10:15:01;9.55;82.54
76345;DHT22;65160;50.504;3.666;2023-01-08T10:17:36;9.52;82.98
76345;DHT22;65160;50.504;3.666;2023-01-08T10:22:38;9.83;81.85
76345;DHT22;65160;50.504;3.666;2023-01-08T10:25:23;9.97;80.66
76345;DHT22;65160;50.504;3.666;2023-01-08T10:28:00;10.14;80.59
76345;DHT22;65160;50.504;3.666;2023-01-08T10:32:56;10.09;80.27
76345;DHT22;65160;50.504;3.666;2023-01-08T10:35:38;10.23;79.52
76345;DHT22;65160;50.504;3.666;2023-01-08T10:38:04;10.21;79.31
76345;DHT22;65160;50.504;3.666;2023-01-08T10:40:37;10.13;79.71
76345;DHT22;65160;50.504;3.666;2023-01-08T10:43:12;9.99;79.97
76345;DHT22;65160;50.504;3.666;2023-01-08T10:45:39;10.14;78.83
76345;DHT22;65160;50.504;3.666;2023-01-08T10:48:06;10.30;78.41
76345;DHT22;65160;50.504;3.666;2023-01-08T10:50:38;10.31;78.41
76345;DHT22;65160;50.504;3.666;2023-01-08T10:53:05;10.51;78.79
76345;DHT22;65160;50.504;3.666;2023-01-08T10:55:32;10.73;76.63
76345;DHT22;65160;50.504;3.666;2023-01-08T10:58:04;10.25;77.54
76345;DHT22;65160;50.504;3.666;2023-01-08T11:00:37;10.44;77.86
76345;DHT22;65160;50.504;3.666;2023-01-08T11:03:29;10.16;78.37
76345;DHT22;65160;50.504;3.666;2023-01-08T11:05:56;9.99;78.82
76345;DHT22;65160;50.504;3.666;2023-01-08T11:08:22;10.12;79.04
76345;DHT22;65160;50.504;3.666;2023-01-08T11:10:57;10.51;78.52
76345;DHT22;65160;50.504;3.666;2023-01-08T11:13:23;10.45;79.06
76345;DHT22;65160;50.504;3.666;2023-01-08T11:16:15;10.24;78.66
76345;DHT22;65160;50.504;3.666;2023-01-08T11:18:45;10.06;77.60
76345;DHT22;65160;50.504;3.666;2023-01-08T11:21:26;9.99;78.34
76345;DHT22;65160;50.504;3.666;2023-01-08T11:26:51;9.79;78.97
76345;DHT22;65160;50.504;3.666;2023-01-08T11:31:49;9.72;79.87
76345;DHT22;65160;50.504;3.666;2023-01-08T11:34:37;9.76;79.82
76345;DHT22;65160;50.504;3.666;2023-01-08T11:37:13;9.79;79.58
76345;DHT22;65160;50.504;3.666;2023-01-08T11:39:44;10.21;78.69
76345;DHT22;65160;50.504;3.666;2023-01-08T11:42:53;10.44;78.75
76345;DHT22;65160;50.504;3.666;2023-01-08T12:02:25;9.72;80.10
76345;DHT22;65160;50.504;3.666;2023-01-08T12:04:58;9.82;79.74
76345;DHT22;65160;50.504;3.666;2023-01-08T12:15:40;10.17;78.16
76345;DHT22;65160;50.504;3.666;2023-01-08T12:18:43;10.83;76.31
76345;DHT22;65160;50.504;3.666;2023-01-08T12:21:24;10.41;76.25
76345;DHT22;65160;50.504;3.666;2023-01-08T12:24:02;10.67;75.96
76345;DHT22;65160;50.504;3.666;2023-01-08T12:40:21;11.31;73.13
76345;DHT22;65160;50.504;3.666;2023-01-08T12:42:49;11.37;72.57
76345;DHT22;65160;50.504;3.666;2023-01-08T12:45:19;11.15;73.55
76345;DHT22;65160;50.504;3.666;2023-01-08T12:47:46;11.05;73.23
76345;DHT22;65160;50.504;3.666;2023-01-08T12:52:50;11.09;74.49
76345;DHT22;65160;50.504;3.666;2023-01-08T12:55:30;11.19;74.29
76345;DHT22;65160;50.504;3.666;2023-01-08T12:58:24;11.34;73.68
76345;DHT22;65160;50.504;3.666;2023-01-08T13:01:24;11.41;73.28
76345;DHT22;65160;50.504;3.666;2023-01-08T13:03:53;11.64;72.90
76345;DHT22;65160;50.504;3.666;2023-01-08T13:06:20;11.35;73.63
76345;DHT22;65160;50.504;3.666;2023-01-08T13:08:52;11.60;73.16
76345;DHT22;65160;50.504;3.666;2023-01-08T13:11:33;11.12;73.73
76345;DHT22;65160;50.504;3.666;2023-01-08T13:14:08;10.96;74.29
76345;DHT22;65160;50.504;3.666;2023-01-08T13:16:39;10.99;73.78
76345;DHT22;65160;50.504;3.666;2023-01-08T13:19:18;11.15;74.24
76345;DHT22;65160;50.504;3.666;2023-01-08T13:21:51;11.71;72.81
76345;DHT22;65160;50.504;3.666;2023-01-08T13:24:31;11.30;71.61
76345;DHT22;65160;50.504;3.666;2023-01-08T13:29:47;10.72;73.94
76345;DHT22;65160;50.504;3.666;2023-01-08T13:35:16;10.48;74.59
76345;DHT22;65160;50.504;3.666;2023-01-08T13:37:47;10.37;74.61
76345;DHT22;65160;50.504;3.666;2023-01-08T13:40:36;10.69;74.16
76345;DHT22;65160;50.504;3.666;2023-01-08T13:43:04;11.07;72.92
76345;DHT22;65160;50.504;3.666;2023-01-08T13:45:30;11.43;73.22
76345;DHT22;65160;50.504;3.666;2023-01-08T13:47:57;11.20;73.02
76345;DHT22;65160;50.504;3.666;2023-01-08T13:50:23;11.51;71.86
76345;DHT22;65160;50.504;3.666;2023-01-08T13:52:57;11.27;72.69
76345;DHT22;65160;50.504;3.666;2023-01-08T13:55:38;11.33;72.76
76345;DHT22;65160;50.504;3.666;2023-01-08T13:58:18;11.54;72.91
76345;DHT22;65160;50.504;3.666;2023-01-08T14:00:47;11.77;72.29
76345;DHT22;65160;50.504;3.666;2023-01-08T14:03:31;11.67;71.20
76345;DHT22;65160;50.504;3.666;2023-01-08T14:06:16;11.23;72.39
76345;DHT22;65160;50.504;3.666;2023-01-08T14:08:58;10.95;74.20
76345;DHT22;65160;50.504;3.666;2023-01-08T14:11:36;10.73;73.32
76345;DHT22;65160;50.504;3.666;2023-01-08T14:14:10;10.73;74.46
76345;DHT22;65160;50.504;3.666;2023-01-08T14:16:36;10.79;73.42
76345;DHT22;65160;50.504;3.666;2023-01-08T14:19:03;11.30;71.60
76345;DHT22;65160;50.504;3.666;2023-01-08T14:21:29;11.79;70.89
76345;DHT22;65160;50.504;3.666;2023-01-08T14:23:55;11.95;70.15
76345;DHT22;65160;50.504;3.666;2023-01-08T14:26:28;11.33;72.14
76345;DHT22;65160;50.504;3.666;2023-01-08T14:28:55;10.89;74.11
76345;DHT22;65160;50.504;3.666;2023-01-08T14:31:23;10.61;74.49
76345;DHT22;65160;50.504;3.666;2023-01-08T14:33:49;10.44;74.86
76345;DHT22;65160;50.504;3.666;2023-01-08T14:36:15;10.31;75.59
76345;DHT22;65160;50.504;3.666;2023-01-08T14:38:41;10.33;76.43
76345;DHT22;65160;50.504;3.666;2023-01-08T14:41:10;10.24;76.46
76345;DHT22;65160;50.504;3.666;2023-01-08T14:43:46;10.23;76.36
76345;DHT22;65160;50.504;3.666;2023-01-08T14:46:25;10.20;76.82
76345;DHT22;65160;50.504;3.666;2023-01-08T14:48:52;10.18;76.60
76345;DHT22;65160;50.504;3.666;2023-01-08T14:51:27;10.18;76.40
76345;DHT22;65160;50.504;3.666;2023-01-08T14:53:57;10.17;76.64
76345;DHT22;65160;50.504;3.666;2023-01-08T14:56:30;10.20;76.32
76345;DHT22;65160;50.504;3.666;2023-01-08T14:58:56;10.18;76.35
76345;DHT22;65160;50.504;3.666;2023-01-08T15:01:29;10.21;76.66
76345;DHT22;65160;50.504;3.666;2023-01-08T15:04:17;10.20;76.40
76345;DHT22;65160;50.504;3.666;2023-01-08T15:06:44;10.17;76.64
76345;DHT22;65160;50.504;3.666;2023-01-08T15:09:32;10.13;77.25
76345;DHT22;65160;50.504;3.666;2023-01-08T15:12:03;10.10;77.12
76345;DHT22;65160;50.504;3.666;2023-01-08T15:14:29;10.06;76.95
76345;DHT22;65160;50.504;3.666;2023-01-08T15:16:57;10.06;76.99
76345;DHT22;65160;50.504;3.666;2023-01-08T15:19:26;10.06;76.76
76345;DHT22;65160;50.504;3.666;2023-01-08T15:21:54;10.07;77.03
76345;DHT22;65160;50.504;3.666;2023-01-08T15:24:29;10.03;76.57
76345;DHT22;65160;50.504;3.666;2023-01-08T15:26:56;10.03;76.61
76345;DHT22;65160;50.504;3.666;2023-01-08T15:29:29;10.02;77.32
76345;DHT22;65160;50.504;3.666;2023-01-08T15:32:21;9.97;77.31
76345;DHT22;65160;50.504;3.666;2023-01-08T15:34:47;9.92;77.32
76345;DHT22;65160;50.504;3.666;2023-01-08T15:37:13;9.90;77.47
76345;DHT22;65160;50.504;3.666;2023-01-08T15:39:39;9.82;77.54
76345;DHT22;65160;50.504;3.666;2023-01-08T15:42:20;9.74;77.80
76345;DHT22;65160;50.504;3.666;2023-01-08T15:45:13;9.69;77.85
76345;DHT22;65160;50.504;3.666;2023-01-08T15:47:39;9.65;77.85
76345;DHT22;65160;50.504;3.666;2023-01-08T15:50:05;9.65;77.81
76345;DHT22;65160;50.504;3.666;2023-01-08T15:52:31;9.61;78.00
76345;DHT22;65160;50.504;3.666;2023-01-08T15:55:00;9.54;78.49
76345;DHT22;65160;50.504;3.666;2023-01-08T15:57:26;9.51;78.61
76345;DHT22;65160;50.504;3.666;2023-01-08T15:59:54;9.45;79.06
76345;DHT22;65160;50.504;3.666;2023-01-08T16:02:20;9.41;79.38
76345;DHT22;65160;50.504;3.666;2023-01-08T16:04:50;9.34;79.66
76345;DHT22;65160;50.504;3.666;2023-01-08T16:07:16;9.34;79.93
76345;DHT22;65160;50.504;3.666;2023-01-08T16:09:41;9.40;79.54
76345;DHT22;65160;50.504;3.666;2023-01-08T16:12:07;9.49;79.31
76345;DHT22;65160;50.504;3.666;2023-01-08T16:14:32;9.54;79.09
76345;DHT22;65160;50.504;3.666;2023-01-08T16:17:05;9.57;79.10
76345;DHT22;65160;50.504;3.666;2023-01-08T16:19:30;9.58;78.83
76345;DHT22;65160;50.504;3.666;2023-01-08T16:21:57;9.62;78.68
76345;DHT22;65160;50.504;3.666;2023-01-08T16:24:22;9.55;78.99
76345;DHT22;65160;50.504;3.666;2023-01-08T16:26:48;9.54;78.89
76345;DHT22;65160;50.504;3.666;2023-01-08T16:29:13;9.57;78.71
76345;DHT22;65160;50.504;3.666;2023-01-08T16:31:43;9.55;79.43
76345;DHT22;65160;50.504;3.666;2023-01-08T16:34:09;9.59;78.64
76345;DHT22;65160;50.504;3.666;2023-01-08T16:36:34;9.62;78.86
76345;DHT22;65160;50.504;3.666;2023-01-08T16:39:00;9.66;79.19
76345;DHT22;65160;50.504;3.666;2023-01-08T16:41:26;9.68;78.90
76345;DHT22;65160;50.504;3.666;2023-01-08T16:43:51;9.65;79.17
76345;DHT22;65160;50.504;3.666;2023-01-08T16:46:17;9.72;78.59
76345;DHT22;65160;50.504;3.666;2023-01-08T16:48:43;9.74;78.95
76345;DHT22;65160;50.504;3.666;2023-01-08T16:51:12;9.74;78.81
76345;DHT22;65160;50.504;3.666;2023-01-08T16:53:38;9.75;79.10
76345;DHT22;65160;50.504;3.666;2023-01-08T16:56:04;9.75;78.70
76345;DHT22;65160;50.504;3.666;2023-01-08T16:58:30;9.72;79.17
76345;DHT22;65160;50.504;3.666;2023-01-08T17:00:56;9.78;78.91
76345;DHT22;65160;50.504;3.666;2023-01-08T17:03:22;9.75;79.16